Time;durP1;ratioP1;P1;durP2;ratioP2;P2;SDS_P1;SDS_P2;PMS_P1;PMS_P2;Temp;Humidity;BMP_temperature;BMP_pressure;BME280_temperature;BME280_humidity;BME280_pressure;Samples;Min_cycle;Max_cycle;Signal;HPM_P1;HPM_P2
2021/09/28 00:01:26;;;;;;;58.65;24.40;;;;;;;17.23;91.51;99020.91;5078330;28;20040;-93
2021/09/28 00:03:52;;;;;;;62.78;24.38;;;;;;;17.22;91.32;99014.66;5079199;28;20071;-93
2021/09/28 00:06:19;;;;;;;55.95;24.13;;;;;;;17.14;92.02;99022.22;5078667;28;20047;-94
2021/09/28 00:08:46;;;;;;;60.22;24.98;;;;;;;17.27;90.42;99017.13;5075458;28;20098;-94
2021/09/28 00:11:12;;;;;;;52.13;24.40;;;;;;;17.30;89.75;98999.97;5074534;28;20047;-95
2021/09/28 00:13:39;;;;;;;62.08;26.63;;;;;;;17.48;89.03;99011.56;5075521;28;20037;-93
2021/09/28 00:16:06;;;;;;;55.13;24.35;;;;;;;17.44;89.02;99025.19;5074702;28;20098;-94
2021/09/28 00:18:32;;;;;;;56.67;24.98;;;;;;;17.44;88.87;99014.44;5074545;28;20074;-95
2021/09/28 00:20:58;;;;;;;54.10;24.50;;;;;;;17.35;88.67;98998.78;5075213;28;20064;-94
2021/09/28 00:23:25;;;;;;;59.40;24.75;;;;;;;17.43;88.80;99020.75;5077131;28;20039;-95
2021/09/28 00:25:51;;;;;;;60.47;24.45;;;;;;;17.29;89.63;99008.97;5078190;28;20104;-94
2021/09/28 00:28:18;;;;;;;61.20;24.27;;;;;;;17.23;89.85;99005.63;5071456;28;20064;-94
2021/09/28 00:30:44;;;;;;;59.20;23.77;;;;;;;17.18;90.04;99012.22;5077682;28;20044;-93
2021/09/28 00:33:10;;;;;;;50.55;22.75;;;;;;;17.31;90.16;99040.19;5080561;28;20049;-94
2021/09/28 00:35:36;;;;;;;50.65;22.92;;;;;;;17.18;90.79;99039.09;5080965;28;20040;-94
2021/09/28 00:38:02;;;;;;;56.58;25.48;;;;;;;17.08;90.90;99027.91;5081540;28;20073;-94
2021/09/28 00:40:30;;;;;;;56.90;24.20;;;;;;;16.87;91.61;99019.06;5081002;28;20045;-94
2021/09/28 00:42:57;;;;;;;53.33;24.57;;;;;;;16.90;91.97;99032.38;5081258;28;20116;-95
2021/09/28 00:45:23;;;;;;;54.95;24.63;;;;;;;16.85;92.67;99037.13;5077719;28;20048;-95
2021/09/28 00:47:49;;;;;;;58.72;25.38;;;;;;;17.12;90.74;99036.69;5078276;28;20126;-94
2021/09/28 00:50:15;;;;;;;59.47;25.80;;;;;;;17.10;90.07;99009.88;5077925;28;20051;-94
2021/09/28 00:52:41;;;;;;;59.75;24.77;;;;;;;17.34;88.44;99018.53;5077578;28;20036;-96
2021/09/28 00:55:07;;;;;;;53.40;23.45;;;;;;;17.42;88.59;99010.94;5080676;28;20067;-94
2021/09/28 00:57:35;;;;;;;57.60;25.27;;;;;;;17.39;87.96;99004.84;5080923;28;20036;-94
2021/09/28 01:00:04;;;;;;;53.45;24.80;;;;;;;17.54;88.89;99035.47;5079531;28;20048;-91
2021/09/28 01:02:30;;;;;;;49.65;22.98;;;;;;;17.39;89.41;99016.50;5082081;28;20078;-94
2021/09/28 01:05:02;;;;;;;56.45;23.83;;;;;;;17.39;89.76;99020.97;5082067;28;20131;-92
2021/09/28 01:07:28;;;;;;;56.63;24.23;;;;;;;17.28;90.36;99015.28;5082042;28;20111;-94
2021/09/28 01:09:54;;;;;;;51.47;24.75;;;;;;;17.29;90.50;99028.66;5082930;28;20203;-94
2021/09/28 01:12:20;;;;;;;58.70;24.17;;;;;;;17.00;90.66;98998.75;5081616;28;20198;-94
2021/09/28 01:14:47;;;;;;;54.10;22.67;;;;;;;17.02;90.95;99012.97;5081441;28;20095;-95
2021/09/28 01:17:14;;;;;;;56.47;24.95;;;;;;;16.97;91.86;99011.44;5079252;28;20040;-95
2021/09/28 01:19:41;;;;;;;57.92;25.38;;;;;;;16.86;92.33;99011.13;5077499;28;20044;-94
2021/09/28 01:22:10;;;;;;;57.30;25.13;;;;;;;16.88;92.77;99015.47;5080996;28;20041;-95
2021/09/28 01:24:36;;;;;;;65.00;25.50;;;;;;;16.82;92.76;99019.31;5081818;28;20051;-94
2021/09/28 01:27:03;;;;;;;53.78;24.05;;;;;;;16.75;92.40;99004.41;5081938;28;20036;-94
2021/09/28 01:29:29;;;;;;;55.55;24.05;;;;;;;16.61;92.91;98997.03;5081694;28;20036;-93
2021/09/28 01:31:54;;;;;;;55.97;23.58;;;;;;;16.66;93.20;99012.06;5080772;28;20044;-95
2021/09/28 01:34:21;;;;;;;53.63;23.02;;;;;;;16.48;93.14;98993.19;5081912;28;20044;-94
2021/09/28 01:36:47;;;;;;;55.35;23.38;;;;;;;16.50;93.59;99007.38;5081444;28;20044;-93
2021/09/28 01:39:15;;;;;;;55.45;24.67;;;;;;;16.40;93.76;98995.38;5080910;28;20053;-95
2021/09/28 01:41:41;;;;;;;50.83;23.05;;;;;;;16.47;93.87;99007.53;5081047;28;20036;-93
2021/09/28 01:44:09;;;;;;;53.85;24.05;;;;;;;16.41;93.79;98994.41;5081523;28;20044;-93
2021/09/28 01:46:39;;;;;;;60.25;23.83;;;;;;;16.39;93.44;99005.25;5080108;28;20142;-94
2021/09/28 01:49:06;;;;;;;57.88;24.35;;;;;;;16.33;93.26;98997.47;5081445;28;20086;-95
2021/09/28 01:51:32;;;;;;;53.33;22.60;;;;;;;16.29;93.33;98995.00;5081522;28;20056;-96
2021/09/28 01:53:58;;;;;;;57.90;24.98;;;;;;;16.26;93.43;98989.75;5080960;28;20044;-93
2021/09/28 01:56:26;;;;;;;57.53;25.35;;;;;;;16.18;93.54;98984.78;5077769;28;20044;-94
2021/09/28 01:58:53;;;;;;;61.90;25.00;;;;;;;16.30;94.82;99002.09;5078109;28;20060;-93
2021/09/28 02:01:18;;;;;;;62.25;25.30;;;;;;;16.07;94.89;98968.28;5080160;28;20498;-93
2021/09/28 02:03:44;;;;;;;59.15;24.88;;;;;;;16.09;94.53;98967.28;5080921;28;20047;-93
2021/09/28 02:06:11;;;;;;;60.10;25.38;;;;;;;16.06;94.76;98954.00;5076549;28;20036;-93
2021/09/28 02:08:37;;;;;;;54.22;23.40;;;;;;;16.04;94.81;98953.19;5079651;28;20131;-94
2021/09/28 02:11:03;;;;;;;52.53;23.63;;;;;;;16.05;94.94;98954.06;5080813;28;20132;-92
2021/09/28 02:13:31;;;;;;;58.55;24.55;;;;;;;16.00;95.15;98955.19;5080036;28;20041;-93
2021/09/28 02:15:57;;;;;;;56.08;23.23;;;;;;;16.13;94.51;98981.41;5080044;28;20481;-95
2021/09/28 02:18:22;;;;;;;54.88;23.65;;;;;;;16.21;95.24;98993.53;5080216;28;20045;-94
2021/09/28 02:20:48;;;;;;;59.85;25.13;;;;;;;16.04;95.12;98973.81;5079906;28;20044;-93
2021/09/28 02:23:14;;;;;;;54.15;23.60;;;;;;;15.97;95.41;98960.66;5080575;28;20036;-95
2021/09/28 02:25:40;;;;;;;59.95;25.15;;;;;;;16.00;96.07;98967.69;5080361;28;20064;-94
2021/09/28 02:28:06;;;;;;;52.42;24.20;;;;;;;16.10;95.82;98985.13;5080346;28;20043;-94
2021/09/28 02:30:34;;;;;;;58.35;24.83;;;;;;;16.05;95.73;98980.88;5078793;28;20052;-93
2021/09/28 02:33:00;;;;;;;55.50;23.80;;;;;;;15.89;95.23;98957.47;5080031;28;20040;-93
2021/09/28 02:35:26;;;;;;;58.65;24.80;;;;;;;15.94;95.37;98967.97;5080086;28;20050;-94
2021/09/28 02:37:52;;;;;;;57.78;24.88;;;;;;;16.06;94.80;98982.66;5079791;28;20094;-93
2021/09/28 02:40:18;;;;;;;57.17;24.15;;;;;;;16.03;95.25;98975.63;5081828;28;20044;-92
2021/09/28 02:42:44;;;;;;;58.85;24.52;;;;;;;15.98;95.60;98980.31;5079896;28;20040;-93
2021/09/28 02:45:10;;;;;;;56.70;24.33;;;;;;;15.96;95.88;98977.72;5078794;28;20109;-94
2021/09/28 02:47:37;;;;;;;58.78;24.50;;;;;;;15.76;96.14;98954.47;5079586;28;20045;-93
2021/09/28 02:50:04;;;;;;;59.28;25.08;;;;;;;15.84;96.34;98972.91;5079169;28;20036;-94
2021/09/28 02:52:30;;;;;;;55.55;24.40;;;;;;;15.92;96.11;98984.16;5078661;28;20132;-95
2021/09/28 02:54:56;;;;;;;59.97;25.10;;;;;;;15.80;95.84;98966.78;5078974;28;20079;-94
2021/09/28 02:57:22;;;;;;;61.25;25.88;;;;;;;15.83;96.15;98968.50;5079927;28;20131;-93
2021/09/28 02:59:48;;;;;;;57.00;24.27;;;;;;;15.72;95.65;98954.66;5079888;28;20059;-92
2021/09/28 03:02:15;;;;;;;53.90;23.33;;;;;;;15.74;95.53;98955.47;5078704;28;20040;-93
2021/09/28 03:04:42;;;;;;;57.22;24.88;;;;;;;15.71;97.07;98951.13;5078723;28;20037;-94
2021/09/28 03:07:08;;;;;;;62.78;25.05;;;;;;;15.68;96.84;98943.19;5079318;28;20048;-94
2021/09/28 03:09:34;;;;;;;61.70;26.58;;;;;;;15.75;97.16;98968.81;5077123;28;20040;-95
2021/09/28 03:12:00;;;;;;;62.83;26.02;;;;;;;15.55;96.53;98947.38;5076025;28;20154;-94
2021/09/28 03:14:27;;;;;;;61.80;26.20;;;;;;;15.66;97.20;98963.84;5076534;28;20040;-93
2021/09/28 03:16:53;;;;;;;65.65;25.92;;;;;;;15.50;97.50;98946.69;5076061;28;20044;-94
2021/09/28 03:19:20;;;;;;;70.20;28.40;;;;;;;15.55;97.44;98960.78;5076022;28;20052;-94
2021/09/28 03:21:48;;;;;;;65.15;25.98;;;;;;;15.53;97.90;98957.28;5074478;28;20555;-94
2021/09/28 03:24:14;;;;;;;64.00;25.20;;;;;;;15.63;97.84;98965.78;5077358;28;20037;-92
2021/09/28 03:26:40;;;;;;;62.50;26.65;;;;;;;15.61;97.99;98963.16;5075163;28;20120;-94
2021/09/28 03:29:06;;;;;;;65.45;26.70;;;;;;;15.60;97.85;98958.75;5076406;28;20501;-94
2021/09/28 03:31:32;;;;;;;63.88;25.58;;;;;;;15.59;97.81;98963.25;5076870;28;20037;-93
2021/09/28 03:33:58;;;;;;;66.38;25.83;;;;;;;15.45;97.85;98946.03;5076518;28;20041;-93
2021/09/28 03:36:24;;;;;;;63.35;26.80;;;;;;;15.61;98.03;98976.56;5077622;28;20032;-94
2021/09/28 03:38:51;;;;;;;64.05;25.23;;;;;;;15.57;98.33;98969.59;5077121;28;20094;-93
2021/09/28 03:41:17;;;;;;;66.22;27.02;;;;;;;15.49;97.46;98950.31;5076165;28;20041;-92
2021/09/28 03:43:43;;;;;;;68.93;26.60;;;;;;;15.62;98.36;98981.00;5076732;28;20102;-93
2021/09/28 03:46:09;;;;;;;62.88;26.35;;;;;;;15.52;97.84;98972.47;5076414;28;20060;-93
2021/09/28 03:48:35;;;;;;;64.53;27.45;;;;;;;15.52;98.08;98974.28;5075829;28;20068;-93
2021/09/28 03:51:01;;;;;;;68.95;29.00;;;;;;;15.46;98.98;98966.53;5076124;28;20068;-93
2021/09/28 03:53:27;;;;;;;66.55;27.02;;;;;;;15.52;98.46;98972.47;5075214;28;20044;-94
2021/09/28 03:55:54;;;;;;;76.95;28.38;;;;;;;15.66;99.59;98985.28;5074629;28;20132;-94
2021/09/28 03:58:20;;;;;;;70.30;28.17;;;;;;;15.73;99.57;98978.75;5077179;28;20032;-94
2021/09/28 04:00:46;;;;;;;67.25;26.58;;;;;;;15.66;98.95;98969.22;5077828;28;20041;-92
2021/09/28 04:03:12;;;;;;;71.78;29.10;;;;;;;15.51;98.17;98946.63;5079028;28;20044;-93
2021/09/28 04:05:38;;;;;;;69.13;27.13;;;;;;;15.67;97.26;98973.63;5078546;28;20047;-93
2021/09/28 04:08:05;;;;;;;68.68;26.95;;;;;;;15.70;97.46;98986.91;5081341;28;20056;-94
2021/09/28 04:10:31;;;;;;;59.88;25.33;;;;;;;15.63;97.68;98976.50;5081480;28;20040;-91
2021/09/28 04:12:58;;;;;;;67.68;27.02;;;;;;;15.58;97.04;98977.56;5082053;28;20044;-93
2021/09/28 04:15:25;;;;;;;65.35;27.05;;;;;;;15.64;97.01;98987.16;5080030;28;20068;-93
2021/09/28 04:17:51;;;;;;;61.00;23.88;;;;;;;15.59;97.82;98984.69;5080334;28;20052;-93
2021/09/28 04:20:17;;;;;;;62.70;24.67;;;;;;;15.46;97.69;98977.25;5080201;28;20039;-93
2021/09/28 04:22:43;;;;;;;64.63;25.60;;;;;;;15.52;96.72;98995.75;5079686;28;20127;-93
2021/09/28 04:25:10;;;;;;;63.90;26.10;;;;;;;15.34;97.71;98968.81;5079336;28;20039;-94
2021/09/28 04:27:37;;;;;;;70.28;27.17;;;;;;;15.41;98.30;98985.47;5078292;28;20037;-93
2021/09/28 04:30:06;;;;;;;66.18;26.05;;;;;;;15.27;98.18;98975.38;5076385;28;20470;-92
2021/09/28 04:32:32;;;;;;;61.83;26.60;;;;;;;15.31;97.62;98989.50;5077826;28;20159;-93
2021/09/28 04:34:58;;;;;;;61.47;26.13;;;;;;;15.23;98.72;98967.53;5078173;28;20068;-93
2021/09/28 04:37:24;;;;;;;66.32;25.95;;;;;;;15.32;98.76;98994.78;5077988;28;20033;-94
2021/09/28 04:39:49;;;;;;;72.10;26.25;;;;;;;15.29;97.61;98986.00;5078806;28;20135;-94
2021/09/28 04:42:16;;;;;;;61.85;27.17;;;;;;;15.19;97.18;98966.78;5078736;28;20183;-93
2021/09/28 04:44:42;;;;;;;58.80;24.65;;;;;;;15.19;98.11;98977.50;5078085;28;20074;-96
2021/09/28 04:47:09;;;;;;;62.75;26.67;;;;;;;15.20;98.32;98982.81;5078358;28;20458;-94
2021/09/28 04:49:35;;;;;;;67.75;25.08;;;;;;;15.22;97.82;98989.88;5079646;28;20066;-93
2021/09/28 04:52:01;;;;;;;63.45;26.23;;;;;;;15.10;98.73;98976.09;5079857;28;20110;-93
2021/09/28 04:54:27;;;;;;;68.78;27.42;;;;;;;15.03;98.18;98960.31;5080696;28;20120;-93
2021/09/28 04:56:53;;;;;;;66.68;27.35;;;;;;;15.23;98.71;99003.22;5080769;28;20454;-94
2021/09/28 04:59:19;;;;;;;73.00;27.88;;;;;;;15.38;98.58;98993.66;5079050;28;20094;-93
2021/09/28 05:01:45;;;;;;;71.25;29.15;;;;;;;15.52;97.83;99001.97;5077613;28;20043;-94
2021/09/28 05:04:12;;;;;;;76.28;30.60;;;;;;;15.97;95.35;99000.03;5076681;28;20036;-92
2021/09/28 05:06:38;;;;;;;75.25;31.83;;;;;;;16.04;93.49;98995.25;5077090;28;20036;-93
2021/09/28 05:09:04;;;;;;;74.15;31.02;;;;;;;16.03;93.58;98999.75;5077582;28;20102;-93
2021/09/28 05:11:30;;;;;;;67.30;28.15;;;;;;;15.76;93.78;98973.22;5080879;28;20040;-92
2021/09/28 05:13:56;;;;;;;68.70;32.35;;;;;;;15.86;93.98;99008.56;5078431;28;20050;-94
2021/09/28 05:16:21;;;;;;;63.30;28.05;;;;;;;15.88;94.29;99020.09;5076880;28;20075;-92
2021/09/28 05:18:47;;;;;;;72.40;29.42;;;;;;;15.77;94.22;98988.41;5077817;28;20090;-92
2021/09/28 05:21:15;;;;;;;66.82;28.13;;;;;;;15.79;93.70;98988.34;5076836;28;20382;-93
2021/09/28 05:23:45;;;;;;;67.95;28.73;;;;;;;15.98;92.96;98997.28;5076306;28;20048;-91
2021/09/28 05:26:13;;;;;;;58.58;26.33;;;;;;;16.10;92.38;98987.78;5077341;28;20565;-93
2021/09/28 05:28:40;;;;;;;64.43;30.17;;;;;;;16.40;90.88;98987.31;5076995;28;20040;-93
2021/09/28 05:31:06;;;;;;;66.93;27.83;;;;;;;16.79;89.97;99027.50;5075660;28;20037;-94
2021/09/28 05:33:32;;;;;;;61.83;26.63;;;;;;;16.72;89.22;99007.25;5076882;28;20059;-95
2021/09/28 05:35:58;;;;;;;55.58;25.98;;;;;;;16.89;88.60;99022.56;5076939;28;20041;-93
2021/09/28 05:38:28;;;;;;;63.55;27.13;;;;;;;16.83;88.59;99020.19;5077380;28;20123;-92
2021/09/28 05:40:54;;;;;;;57.00;28.77;;;;;;;16.78;88.21;99014.13;5077071;28;20044;-94
2021/09/28 05:43:22;;;;;;;59.17;24.98;;;;;;;16.87;88.40;99015.53;5076541;28;20043;-94
2021/09/28 05:45:48;;;;;;;64.75;30.40;;;;;;;16.92;88.50;99033.16;5075328;28;20058;-93
2021/09/28 05:48:14;;;;;;;62.20;27.25;;;;;;;17.03;87.73;99046.06;5076105;28;20120;-91
2021/09/28 05:50:41;;;;;;;60.53;26.40;;;;;;;17.08;87.51;99040.47;5076129;28;20037;-92
2021/09/28 05:53:08;;;;;;;54.33;24.23;;;;;;;17.14;87.13;99037.50;5076506;28;20047;-92
2021/09/28 05:55:36;;;;;;;57.10;25.77;;;;;;;17.10;87.30;99020.63;5075844;28;20040;-92
2021/09/28 05:58:03;;;;;;;58.95;26.10;;;;;;;17.20;86.50;99021.06;5073290;28;20033;-90
2021/09/28 06:00:29;;;;;;;54.30;24.48;;;;;;;17.37;86.14;99031.84;5075164;28;20040;-91
2021/09/28 06:02:55;;;;;;;56.63;25.38;;;;;;;17.49;85.76;99042.91;5075299;28;20051;-91
2021/09/28 06:05:21;;;;;;;62.40;29.65;;;;;;;17.44;85.63;99030.56;5075532;28;20033;-91
2021/09/28 06:07:47;;;;;;;50.15;24.27;;;;;;;17.60;84.85;99035.16;5075622;28;20033;-92
2021/09/28 06:10:13;;;;;;;61.17;25.35;;;;;;;17.70;84.49;99039.13;5072636;28;20071;-93
2021/09/28 06:12:43;;;;;;;58.03;24.83;;;;;;;17.70;84.30;99036.44;5075790;28;20059;-92
2021/09/28 06:15:10;;;;;;;56.47;23.67;;;;;;;17.72;84.23;99026.47;5073696;28;20032;-93
2021/09/28 06:17:36;;;;;;;55.88;25.85;;;;;;;17.81;83.57;99025.09;5075525;28;20094;-92
2021/09/28 06:20:03;;;;;;;58.72;29.55;;;;;;;17.92;83.19;99046.97;5074873;28;20040;-93
2021/09/28 06:22:32;;;;;;;54.60;26.77;;;;;;;17.86;83.35;99023.94;5075230;28;20490;-94
2021/09/28 06:24:58;;;;;;;54.78;27.52;;;;;;;17.98;82.79;99025.13;5075361;28;20123;-89
2021/09/28 06:27:24;;;;;;;50.78;24.42;;;;;;;18.03;82.33;99022.19;5074831;28;20132;-92
2021/09/28 06:29:52;;;;;;;61.90;26.55;;;;;;;18.07;82.35;99029.13;5072673;28;20052;-93
2021/09/28 06:32:19;;;;;;;59.30;26.80;;;;;;;18.10;81.88;99026.25;5073831;28;20047;-92
2021/09/28 06:34:45;;;;;;;56.58;25.35;;;;;;;18.21;81.86;99040.00;5075012;28;20086;-92
2021/09/28 06:37:11;;;;;;;59.38;27.42;;;;;;;18.16;81.54;99039.41;5075159;28;20032;-93
2021/09/28 06:39:37;;;;;;;51.65;24.50;;;;;;;18.23;80.97;99026.47;5074786;28;20051;-93
2021/09/28 06:42:03;;;;;;;52.03;24.25;;;;;;;18.36;80.87;99040.16;5074874;28;20127;-94
2021/09/28 06:44:29;;;;;;;59.63;29.02;;;;;;;18.31;80.59;99039.53;5072035;28;20041;-93
2021/09/28 06:46:57;;;;;;;63.75;30.83;;;;;;;18.35;80.15;99025.81;5073082;28;20125;-91
2021/09/28 06:49:22;;;;;;;50.38;23.83;;;;;;;18.48;79.33;99031.41;5075142;28;20037;-91
2021/09/28 06:51:48;;;;;;;56.33;26.25;;;;;;;18.62;79.13;99047.66;5074450;28;20511;-93
2021/09/28 06:54:14;;;;;;;56.20;26.27;;;;;;;18.72;78.98;99060.63;5074350;28;20039;-92
2021/09/28 06:56:41;;;;;;;52.47;23.42;;;;;;;18.73;78.92;99044.34;5075751;28;20043;-93
2021/09/28 06:59:08;;;;;;;62.25;25.35;;;;;;;18.77;78.70;99043.22;5075187;28;20043;-92
2021/09/28 07:01:34;;;;;;;48.97;22.73;;;;;;;18.84;77.88;99033.00;5076118;28;20055;-90
2021/09/28 07:04:03;;;;;;;47.22;22.90;;;;;;;18.93;77.74;99045.09;5073967;28;20044;-92
2021/09/28 07:06:29;;;;;;;50.88;24.70;;;;;;;19.16;76.72;99051.88;5075428;28;20183;-92
2021/09/28 07:08:55;;;;;;;51.08;22.83;;;;;;;19.25;76.67;99052.19;5074378;28;20041;-91
2021/09/28 07:11:22;;;;;;;51.63;24.20;;;;;;;19.21;76.27;99044.38;5074558;28;20037;-93
2021/09/28 07:13:48;;;;;;;49.05;24.33;;;;;;;19.28;76.32;99059.25;5076316;28;20044;-92
2021/09/28 07:16:14;;;;;;;64.07;24.98;;;;;;;19.27;76.44;99050.28;5075165;28;20044;-92
2021/09/28 07:18:41;;;;;;;50.72;23.17;;;;;;;19.51;75.68;99065.97;5073966;28;20076;-91
2021/09/28 07:21:08;;;;;;;50.33;23.25;;;;;;;19.44;74.53;99041.19;5074536;28;20075;-91
2021/09/28 07:23:34;;;;;;;50.70;23.58;;;;;;;19.64;74.39;99056.19;5074213;28;20041;-93
2021/09/28 07:26:01;;;;;;;50.63;24.20;;;;;;;19.62;75.39;99070.72;5074187;28;20036;-91
2021/09/28 07:28:27;;;;;;;52.13;23.83;;;;;;;19.64;74.45;99055.31;5073759;28;20071;-92
2021/09/28 07:30:53;;;;;;;51.20;24.45;;;;;;;19.68;74.57;99060.44;5075447;28;20036;-91
2021/09/28 07:33:19;;;;;;;52.50;25.75;;;;;;;19.74;73.18;99064.66;5076125;28;20563;-91
2021/09/28 07:35:47;;;;;;;52.35;25.35;;;;;;;19.74;74.02;99040.38;5074008;28;20036;-91
2021/09/28 07:38:16;;;;;;;53.08;24.27;;;;;;;19.92;73.64;99073.47;5073419;28;20502;-94
2021/09/28 07:40:45;;;;;;;51.42;26.00;;;;;;;19.87;73.63;99084.53;5073299;28;20045;-92
2021/09/28 07:43:11;;;;;;;54.38;24.42;;;;;;;19.93;73.82;99075.22;5073348;28;20128;-91
2021/09/28 07:45:38;;;;;;;53.28;25.20;;;;;;;20.16;72.22;99081.88;5072765;28;20421;-92
2021/09/28 07:48:05;;;;;;;55.85;24.92;;;;;;;19.92;73.36;99081.56;5072421;28;20052;-92
2021/09/28 07:50:32;;;;;;;54.95;25.10;;;;;;;19.96;73.13;99072.31;5073453;28;20513;-92
2021/09/28 07:52:58;;;;;;;50.55;23.08;;;;;;;20.26;70.92;99080.38;5073695;28;20075;-93
2021/09/28 07:55:26;;;;;;;53.15;25.02;;;;;;;20.27;70.22;99084.78;5073024;28;20064;-92
2021/09/28 07:57:52;;;;;;;53.20;25.48;;;;;;;20.28;69.93;99081.13;5073742;28;20040;-90
2021/09/28 08:00:18;;;;;;;46.85;24.15;;;;;;;20.42;69.65;99093.78;5071482;28;20041;-92
2021/09/28 08:02:44;;;;;;;55.60;24.63;;;;;;;20.67;68.13;99085.03;5073602;28;20048;-91
2021/09/28 08:05:11;;;;;;;55.60;28.45;;;;;;;20.53;68.57;99091.25;5073523;28;20158;-92
2021/09/28 08:10:34;;;;;;;51.75;25.35;;;;;;;20.82;67.64;99104.81;5125240;27;20384;-92
2021/09/28 08:13:04;;;;;;;51.38;25.20;;;;;;;20.98;67.25;99096.59;5120736;27;20118;-92
2021/09/28 08:15:30;;;;;;;48.20;22.42;;;;;;;21.11;66.32;99097.53;5121667;28;20044;-91
2021/09/28 08:17:56;;;;;;;48.25;23.05;;;;;;;21.18;65.67;99100.69;5125409;28;20039;-92
2021/09/28 08:20:22;;;;;;;54.53;23.67;;;;;;;21.18;66.38;99081.75;5126280;27;20250;-92
2021/09/28 08:22:48;;;;;;;50.20;24.05;;;;;;;21.25;65.22;99095.75;5127928;28;20427;-93
2021/09/28 08:25:17;;;;;;;52.72;27.17;;;;;;;21.14;65.17;99093.75;5126812;28;20035;-90
2021/09/28 08:30:44;;;;;;;48.17;22.80;;;;;;;21.19;64.52;99088.03;5091237;27;20713;-92
2021/09/28 08:33:10;;;;;;;47.88;24.10;;;;;;;21.43;63.94;99094.56;5091612;28;20067;-92
2021/09/28 08:35:36;;;;;;;49.38;23.75;;;;;;;21.38;63.58;99087.69;5091576;28;20044;-91
2021/09/28 08:38:01;;;;;;;48.10;25.35;;;;;;;21.25;63.84;99088.53;5091886;28;20047;-90
2021/09/28 08:40:27;;;;;;;48.90;23.77;;;;;;;21.50;63.84;99098.59;5091084;28;20489;-92
2021/09/28 08:42:55;;;;;;;53.30;23.80;;;;;;;21.74;63.73;99096.06;5090982;28;20047;-92
2021/09/28 08:45:24;;;;;;;45.25;23.15;;;;;;;21.93;60.97;99108.38;5091825;28;20115;-95
2021/09/28 08:47:51;;;;;;;45.33;22.63;;;;;;;21.86;61.24;99088.97;5092874;28;20033;-92
2021/09/28 08:50:20;;;;;;;48.00;22.40;;;;;;;21.83;61.68;99100.00;5091497;28;20037;-93
2021/09/28 08:52:47;;;;;;;49.63;22.52;;;;;;;22.12;62.31;99102.53;5091278;28;20040;-92
2021/09/28 08:55:13;;;;;;;44.78;21.80;;;;;;;22.36;60.28;99083.75;5091277;28;20040;-94
2021/09/28 08:57:41;;;;;;;40.38;21.38;;;;;;;21.97;60.46;99085.53;5091168;28;20036;-91
2021/09/28 09:00:21;;;;;;;39.58;21.02;;;;;;;21.83;59.73;99074.75;5090291;28;20113;-93
2021/09/28 09:02:48;;;;;;;39.83;19.20;;;;;;;22.25;58.21;99092.63;5084280;28;20032;-93
2021/09/28 09:05:16;;;;;;;37.80;19.38;;;;;;;22.18;58.34;99077.72;5090930;28;20570;-90
2021/09/28 09:07:42;;;;;;;;;;;;;;;22.44;58.28;99094.88;5086667;28;20518;-91
2021/09/28 09:10:10;;;;;;;39.58;18.08;;;;;;;22.45;57.61;99060.56;5090707;28;19974;-93
2021/09/28 09:12:39;;;;;;;33.65;18.20;;;;;;;22.44;56.71;99084.06;5089483;28;20394;-91
2021/09/28 09:15:18;;;;;;;;;;;;;;;22.36;56.65;99091.88;5089287;28;20062;-93
2021/09/28 09:17:44;;;;;;;32.60;17.02;;;;;;;22.32;56.84;99077.66;5091848;28;19916;-94
2021/09/28 09:20:40;;;;;;;31.95;16.90;;;;;;;22.73;56.40;99068.44;5089884;28;20393;-95
2021/09/28 09:23:16;;;;;;;33.70;17.00;;;;;;;22.53;54.13;99069.88;5059839;28;20065;-92
2021/09/28 09:25:42;;;;;;;30.73;17.65;;;;;;;21.99;56.24;99070.03;5050295;28;20041;-94
2021/09/28 09:28:21;;;;;;;27.25;14.93;;;;;;;22.60;56.60;99064.88;5062652;28;20087;-93
2021/09/28 09:30:47;;;;;;;27.10;16.08;;;;;;;22.58;53.48;99053.28;5046513;28;20048;-95
2021/09/28 09:33:22;;;;;;;28.15;13.85;;;;;;;22.88;54.19;99068.28;5046514;28;20045;-91
2021/09/28 09:35:58;;;;;;;26.42;14.15;;;;;;;22.61;53.30;99053.03;5058212;28;20056;-93
2021/09/28 09:38:25;;;;;;;23.88;12.02;;;;;;;22.93;53.29;99057.97;5052744;28;20029;-91
2021/09/28 09:40:52;;;;;;;22.17;12.70;;;;;;;22.50;53.34;99042.09;5035523;28;20041;-92
2021/09/28 09:43:27;;;;;;;23.23;12.45;;;;;;;22.69;52.49;99068.75;5045590;28;20132;-93
2021/09/28 09:46:06;;;;;;;22.13;11.98;;;;;;;22.74;53.14;99056.59;5020153;28;20049;-93
2021/09/28 09:48:34;;;;;;;19.77;10.63;;;;;;;22.82;52.64;99036.22;5041437;28;20053;-95
2021/09/28 09:51:05;;;;;;;21.50;11.70;;;;;;;22.98;53.29;99029.50;5036246;28;20049;-95
2021/09/28 09:53:32;;;;;;;21.30;11.85;;;;;;;23.02;52.83;99030.19;5038993;28;20060;-96
2021/09/28 09:55:58;;;;;;;19.52;11.05;;;;;;;23.32;51.40;99048.75;5032666;28;20077;-96
2021/09/28 09:58:25;;;;;;;22.00;11.65;;;;;;;23.61;50.24;99037.50;5059798;28;20040;-93
2021/09/28 10:00:53;;;;;;;20.98;12.60;;;;;;;23.15;50.64;99035.56;5076877;28;20040;-93
2021/09/28 10:03:20;;;;;;;20.92;11.93;;;;;;;23.41;51.45;99030.03;5077740;28;20051;-93
2021/09/28 10:05:46;;;;;;;21.98;12.48;;;;;;;23.28;51.58;99028.25;5078660;28;20056;-93
2021/09/28 10:08:14;;;;;;;21.70;11.57;;;;;;;23.35;51.49;99042.22;5077156;28;20385;-92
2021/09/28 10:10:42;;;;;;;23.05;12.73;;;;;;;23.53;51.85;99035.41;5077229;28;20044;-96
2021/09/28 10:13:28;;;;;;;24.85;12.93;;;;;;;23.50;51.01;99034.75;5078661;28;20040;-94
2021/09/28 10:16:27;;;;;;;26.55;13.90;;;;;;;23.57;50.89;99025.16;5077371;28;20033;-93
2021/09/28 10:18:53;;;;;;;24.10;12.32;;;;;;;23.64;49.90;99020.13;5071588;28;20498;-94
2021/09/28 10:21:34;;;;;;;23.92;12.63;;;;;;;23.69;51.22;99026.09;5079367;28;20044;-95
2021/09/28 10:24:27;;;;;;;25.95;13.90;;;;;;;23.97;48.91;99027.56;5078501;28;20032;-93
2021/09/28 10:27:28;;;;;;;24.27;13.65;;;;;;;23.88;51.04;99029.13;5079487;28;20040;-94
2021/09/28 10:29:56;;;;;;;27.05;14.57;;;;;;;23.61;50.31;99004.09;5075200;28;20056;-94
2021/09/28 10:32:44;;;;;;;24.80;13.93;;;;;;;24.10;50.50;99014.72;5081180;28;20076;-95
2021/09/28 10:35:14;;;;;;;26.35;15.15;;;;;;;24.17;49.52;99012.38;5079997;28;20040;-95
2021/09/28 10:37:52;;;;;;;29.55;16.00;;;;;;;24.12;49.43;99010.03;5077181;28;20037;-95
2021/09/28 10:40:50;;;;;;;25.60;15.25;;;;;;;24.17;47.86;99020.53;5076735;28;20036;-95
2021/09/28 10:43:32;;;;;;;27.08;15.85;;;;;;;24.04;48.93;99007.06;5076173;28;20064;-93
2021/09/28 10:46:01;;;;;;;29.52;17.17;;;;;;;24.12;48.02;98992.88;5077156;28;20040;-94
2021/09/28 10:48:40;;;;;;;30.35;16.92;;;;;;;24.31;48.08;99014.88;5079679;28;20055;-94
2021/09/28 10:51:10;;;;;;;28.67;16.75;;;;;;;24.14;49.38;98982.75;5077277;28;20045;-95
2021/09/28 10:53:37;;;;;;;30.83;19.15;;;;;;;24.23;47.02;98990.16;5078747;28;20485;-95
2021/09/28 10:59:06;;;;;;;35.40;18.17;;;;;;;24.37;47.44;98980.88;5093814;27;20374;-94
2021/09/28 11:01:33;;;;;;;33.00;19.02;;;;;;;24.33;47.13;98983.00;5092263;28;20079;-93
2021/09/28 11:04:10;;;;;;;30.70;17.73;;;;;;;24.40;46.85;98986.94;5088761;28;20502;-94
2021/09/28 11:06:45;;;;;;;32.85;17.48;;;;;;;24.55;47.57;98965.84;5092537;28;20051;-94
2021/09/28 11:09:11;;;;;;;27.67;16.83;;;;;;;24.66;47.60;98958.66;5094345;28;20070;-93
2021/09/28 11:11:39;;;;;;;31.35;17.70;;;;;;;24.79;46.48;98968.41;5095663;28;20040;-94
2021/09/28 11:14:08;;;;;;;28.58;17.05;;;;;;;24.60;47.03;98963.63;5095121;28;20047;-94
2021/09/28 11:16:39;;;;;;;30.13;16.55;;;;;;;24.68;46.33;98965.72;5093244;28;20040;-94
2021/09/28 11:19:05;;;;;;;28.00;17.90;;;;;;;24.56;46.72;98967.56;5092727;28;20056;-94
2021/09/28 11:21:36;;;;;;;29.52;18.38;;;;;;;24.64;46.77;98961.50;5093880;28;20387;-93
2021/09/28 11:24:02;;;;;;;27.40;16.30;;;;;;;24.79;46.29;98960.25;5097058;28;20044;-95
2021/09/28 11:26:32;;;;;;;29.13;16.85;;;;;;;24.91;46.48;98941.16;5099303;28;20036;-95
2021/09/28 11:28:59;;;;;;;25.35;16.15;;;;;;;24.87;45.30;98937.84;5094933;28;20124;-94